Time;durP1;ratioP1;P1;durP2;ratioP2;P2;SDS_P1;SDS_P2;PMS_P1;PMS_P2;Temp;Humidity;BMP_temperature;BMP_pressure;BME280_temperature;BME280_humidity;BME280_pressure;Samples;Min_cycle;Max_cycle;Signal;HPM_P1;HPM_P2
2022/09/26 04:08:25;;;;;;;26.27;23.48;;;;;;;14.97;100.00;99706.75;5609356;31;79015;-58
2022/09/26 04:11:28;;;;;;;25.85;22.25;;;;;;;14.97;100.00;99706.75;5602032;31;33148;-58
2022/09/26 04:14:31;;;;;;;24.90;21.52;;;;;;;14.54;100.00;99702.31;5601560;31;34237;-58
2022/09/26 04:17:34;;;;;;;24.77;22.27;;;;;;;14.58;100.00;99707.88;5603604;31;33288;-58
2022/09/26 04:20:36;;;;;;;25.17;21.55;;;;;;;14.63;100.00;99706.88;5603553;31;33156;-58
2022/09/26 04:23:39;;;;;;;25.30;22.33;;;;;;;14.71;100.00;99697.97;5602071;31;33502;-58
2022/09/26 04:26:43;;;;;;;23.95;21.35;;;;;;;14.75;99.79;99699.69;5601909;31;33329;-58
2022/09/26 04:29:45;;;;;;;23.00;20.33;;;;;;;14.72;100.00;99696.84;5582456;31;33600;-58
2022/09/26 04:32:47;;;;;;;22.65;20.35;;;;;;;14.69;100.00;99697.50;5580265;32;33709;-59
2022/09/26 04:35:51;;;;;;;21.50;19.30;;;;;;;14.72;99.98;99702.25;5563971;32;33141;-58
2022/09/26 04:38:53;;;;;;;22.33;19.67;;;;;;;14.66;100.00;99693.53;5565572;31;34262;-59
2022/09/26 04:41:57;;;;;;;25.37;22.00;;;;;;;14.67;99.88;99691.62;5564128;32;32558;-58
2022/09/26 04:44:59;;;;;;;24.77;21.23;;;;;;;14.65;100.00;99693.88;5578567;31;33362;-59
2022/09/26 04:48:01;;;;;;;21.25;19.05;;;;;;;14.73;99.86;99688.44;5583325;31;34249;-58
2022/09/26 04:51:08;;;;;;;22.08;19.77;;;;;;;14.81;99.05;99686.81;5567825;32;31936;-58
2022/09/26 04:54:11;;;;;;;23.77;20.12;;;;;;;14.70;100.00;99690.97;5569250;31;34275;-59
2022/09/26 04:57:13;;;;;;;20.85;18.65;;;;;;;14.83;98.80;99689.97;5579418;31;34679;-58
2022/09/26 05:00:22;;;;;;;22.00;19.65;;;;;;;14.77;99.01;99696.69;5573806;32;34373;-58
2022/09/26 05:03:24;;;;;;;21.73;19.42;;;;;;;14.76;98.87;99706.66;5573086;32;32190;-59
2022/09/26 05:06:27;;;;;;;21.73;19.50;;;;;;;14.70;99.33;99705.28;5573523;32;34403;-58
2022/09/26 05:09:29;;;;;;;22.20;19.90;;;;;;;14.72;100.00;99708.44;5581305;31;33369;-58
2022/09/26 05:12:40;;;;;;;21.73;19.42;;;;;;;14.69;99.54;99714.47;5579108;32;34145;-58
2022/09/26 05:15:42;;;;;;;21.65;19.35;;;;;;;14.73;99.83;99711.91;5563857;32;34224;-59
2022/09/26 05:18:51;;;;;;;21.55;19.37;;;;;;;14.86;98.82;99710.91;5570774;31;33312;-58
2022/09/26 05:21:55;;;;;;;22.42;20.12;;;;;;;14.77;99.30;99707.47;5567852;32;33403;-59
2022/09/26 05:28:18;;;;;;;21.73;19.52;;;;;;;14.79;100.00;99705.22;5566653;32;34236;-59
2022/09/26 05:31:24;;;;;;;21.37;19.15;;;;;;;14.94;99.26;99696.59;5567621;32;34127;-58
2022/09/26 05:34:26;;;;;;;23.15;20.67;;;;;;;15.00;98.06;99698.00;5568013;32;33627;-58
2022/09/26 05:37:29;;;;;;;22.50;20.20;;;;;;;15.01;98.45;99690.69;5566905;31;33563;-58
2022/09/26 05:43:53;;;;;;;24.87;22.05;;;;;;;15.06;97.36;99682.38;5567426;32;33213;-58
2022/09/26 05:46:56;;;;;;;23.75;20.50;;;;;;;14.86;99.40;99697.41;5566569;31;33256;-59
2022/09/26 05:50:00;;;;;;;24.92;22.05;;;;;;;14.84;100.00;99686.19;5564121;31;32827;-59
2022/09/26 05:53:03;;;;;;;26.92;21.05;;;;;;;14.76;100.00;99711.28;5564925;32;33246;-59
2022/09/26 05:56:08;;;;;;;25.05;21.60;;;;;;;14.71;100.00;99720.34;5564404;31;34202;-58
2022/09/26 05:59:22;;;;;;;24.90;20.65;;;;;;;14.66;100.00;99715.12;5564782;32;34356;-58
2022/09/26 06:02:25;;;;;;;22.67;20.33;;;;;;;14.75;100.00;99717.78;5566340;31;33361;-58
2022/09/26 06:05:29;;;;;;;23.73;20.83;;;;;;;14.82;100.00;99696.50;5565950;32;34083;-58
2022/09/26 06:08:35;;;;;;;25.83;21.55;;;;;;;14.88;99.34;99697.91;5556070;31;33925;-58
2022/09/26 06:11:38;;;;;;;23.73;21.02;;;;;;;14.82;99.80;99687.59;5568357;31;34596;-58
2022/09/26 06:14:45;;;;;;;26.55;22.10;;;;;;;14.86;100.00;99670.44;5564996;32;33336;-58
2022/09/26 06:17:56;;;;;;;24.23;21.58;;;;;;;14.95;98.98;99665.00;5568689;31;33341;-58
2022/09/26 06:21:03;;;;;;;24.15;21.58;;;;;;;14.87;99.05;99660.44;5567888;32;33640;-59
2022/09/26 06:24:07;;;;;;;26.02;23.20;;;;;;;14.82;99.33;99671.41;5561747;31;32288;-58
2022/09/26 06:27:09;;;;;;;26.73;22.70;;;;;;;14.78;100.00;99660.50;5565032;32;31783;-58
2022/09/26 06:30:12;;;;;;;27.73;23.30;;;;;;;14.82;100.00;99666.03;5567698;32;33863;-58
2022/09/26 06:33:15;;;;;;;25.42;22.73;;;;;;;14.93;100.00;99672.63;5566263;31;33281;-59
2022/09/26 06:36:21;;;;;;;26.80;24.00;;;;;;;14.96;100.00;99670.06;5566744;31;33728;-59
2022/09/26 06:39:30;;;;;;;28.42;23.15;;;;;;;15.10;98.63;99674.41;5566225;31;34127;-59
2022/09/26 06:42:36;;;;;;;30.27;25.20;;;;;;;15.12;98.06;99680.28;5567190;31;33371;-59
2022/09/26 06:45:44;;;;;;;30.73;25.73;;;;;;;15.14;99.32;99681.56;5559708;32;33353;-59
2022/09/26 06:48:47;;;;;;;;;;;;;;;15.14;99.12;99676.16;5566466;32;33525;-58
2022/09/26 06:51:49;;;;;;;33.22;25.12;;;;;;;15.16;98.39;99682.00;5562765;32;33594;-58
2022/09/26 06:54:55;;;;;;;31.70;25.90;;;;;;;15.12;99.31;99689.19;5563050;32;33220;-58
2022/09/26 06:57:57;;;;;;;31.83;26.25;;;;;;;15.13;98.99;99687.25;5563844;32;33610;-58
2022/09/26 07:01:00;;;;;;;36.88;25.85;;;;;;;15.19;98.67;99675.16;5566868;32;33513;-58
2022/09/26 07:04:04;;;;;;;35.45;26.17;;;;;;;15.19;98.39;99675.94;5565732;31;33319;-58
2022/09/26 07:07:07;;;;;;;31.60;25.73;;;;;;;15.24;97.66;99681.16;5564899;31;33390;-58
2022/09/26 07:10:09;;;;;;;31.40;25.85;;;;;;;15.32;96.98;99668.72;5563719;32;33708;-59
2022/09/26 07:13:14;;;;;;;35.38;26.77;;;;;;;15.24;98.06;99669.59;5563477;32;33400;-58
2022/09/26 07:16:17;;;;;;;33.50;26.40;;;;;;;15.15;98.76;99672.34;5562951;31;34364;-58
2022/09/26 07:19:20;;;;;;;37.30;26.70;;;;;;;15.16;99.29;99676.59;5565004;32;33181;-58
2022/09/26 07:22:24;;;;;;;32.90;26.62;;;;;;;15.20;99.03;99682.16;5559490;32;34357;-58
2022/09/26 07:25:30;;;;;;;33.17;26.87;;;;;;;15.23;99.20;99684.19;5560360;32;32555;-59
2022/09/26 07:28:32;;;;;;;33.88;26.92;;;;;;;15.23;99.50;99673.37;5565963;32;33673;-59
2022/09/26 07:31:35;;;;;;;33.38;26.92;;;;;;;15.30;99.41;99681.78;5559310;31;33261;-58
2022/09/26 07:34:41;;;;;;;31.20;25.70;;;;;;;15.31;99.52;99674.47;5552776;31;34388;-58
2022/09/26 07:37:51;;;;;;;31.25;25.77;;;;;;;15.32;100.00;99682.22;5557464;32;33109;-59
2022/09/26 07:40:54;;;;;;;30.62;25.15;;;;;;;15.38;100.00;99702.50;5562554;32;34447;-58
2022/09/26 07:43:57;;;;;;;33.53;25.45;;;;;;;15.40;99.87;99702.19;5568300;32;33373;-59
2022/09/26 07:50:45;;;;;;;31.27;25.23;;;;;;;15.29;100.00;99715.28;5561573;32;34403;-58
2022/09/26 07:53:47;;;;;;;31.50;25.75;;;;;;;15.34;100.00;99714.31;5558424;32;33587;-58
2022/09/26 07:56:52;;;;;;;32.67;26.42;;;;;;;15.49;100.00;99719.13;5566149;31;34644;-58
2022/09/26 07:59:54;;;;;;;33.33;25.80;;;;;;;15.49;100.00;99719.91;5561217;32;33290;-58
2022/09/26 08:03:00;;;;;;;32.85;25.02;;;;;;;15.44;100.00;99722.03;5564047;32;33168;-59
2022/09/26 08:06:03;;;;;;;35.15;25.37;;;;;;;15.39;100.00;99714.09;5566348;31;34104;-58
2022/09/26 08:09:06;;;;;;;30.05;23.80;;;;;;;15.37;100.00;99711.75;5563290;31;33796;-58
2022/09/26 08:12:13;;;;;;;29.27;24.27;;;;;;;15.38;100.00;99702.50;5566443;31;33308;-58
2022/09/26 08:15:19;;;;;;;25.80;21.27;;;;;;;15.46;100.00;99700.88;5559488;32;31740;-59
2022/09/26 08:18:24;;;;;;;24.10;21.35;;;;;;;15.52;100.00;99713.84;5567415;32;33693;-59
2022/09/26 08:21:26;;;;;;;23.65;20.70;;;;;;;15.41;100.00;99714.56;5565960;32;33504;-58
2022/09/26 08:24:29;;;;;;;23.60;20.23;;;;;;;15.43;100.00;99713.13;5558746;32;34684;-58
2022/09/26 08:27:33;;;;;;;23.75;19.87;;;;;;;15.40;100.00;99719.19;5563394;31;34159;-58
2022/09/26 08:30:35;;;;;;;23.50;20.30;;;;;;;15.46;100.00;99709.78;5562753;32;34324;-58
2022/09/26 08:33:38;;;;;;;23.67;20.05;;;;;;;15.50;100.00;99704.50;5557478;32;33443;-58
2022/09/26 08:36:40;;;;;;;24.27;21.00;;;;;;;15.44;100.00;99706.59;5562739;32;33552;-58
2022/09/26 08:39:43;;;;;;;25.55;21.15;;;;;;;15.47;100.00;99705.16;5566814;31;34144;-58
2022/09/26 08:43:10;;;;;;;22.02;18.27;;;;;;;15.44;100.00;99712.00;5565931;31;33443;-59
2022/09/26 08:49:49;;;;;;;20.27;18.00;;;;;;;15.52;100.00;99719.25;5566452;32;33929;-56
2022/09/26 08:53:14;;;;;;;21.92;19.08;;;;;;;15.59;100.00;99716.03;5565608;32;33381;-56
2022/09/26 08:56:21;;;;;;;21.83;19.53;;;;;;;15.55;100.00;99717.81;5568732;31;31971;-56
2022/09/26 08:59:30;;;;;;;;;;;;;;;15.57;100.00;99712.88;5567448;32;33225;-56
2022/09/26 09:03:11;;;;;;;21.05;17.92;;;;;;;15.62;100.00;99722.69;5562900;32;33360;-57
2022/09/26 09:06:17;;;;;;;20.08;17.70;;;;;;;15.67;100.00;99722.53;5567538;32;33646;-57
2022/09/26 09:09:20;;;;;;;18.05;15.18;;;;;;;15.72;100.00;99723.09;5560450;32;34318;-57
2022/09/26 09:12:38;;;;;;;16.23;14.40;;;;;;;15.77;100.00;99732.94;5565403;32;33629;-57
2022/09/26 09:16:11;;;;;;;16.25;14.23;;;;;;;15.74;100.00;99726.28;5560809;32;34307;-57
2022/09/26 09:19:37;;;;;;;16.58;14.30;;;;;;;15.74;100.00;99725.50;5558782;31;33764;-57
2022/09/26 09:23:06;;;;;;;14.98;12.10;;;;;;;15.69;100.00;99722.97;5567450;32;33692;-57
2022/09/26 09:26:35;;;;;;;13.88;12.35;;;;;;;15.82;100.00;99713.00;5566603;32;33534;-57
2022/09/26 09:30:15;;;;;;;13.60;11.55;;;;;;;15.94;100.00;99716.56;5568148;31;34149;-57
2022/09/26 09:33:28;;;;;;;12.02;10.60;;;;;;;16.04;98.26;99714.56;5567452;31;33380;-57
2022/09/26 09:36:40;;;;;;;11.70;9.60;;;;;;;16.16;98.00;99696.47;5565399;32;34538;-57
2022/09/26 09:39:47;;;;;;;11.85;8.80;;;;;;;16.16;96.85;99701.09;5563305;32;34567;-57
2022/09/26 09:43:25;;;;;;;11.23;9.50;;;;;;;16.23;97.57;99695.94;5562906;32;34503;-57
2022/09/26 09:46:28;;;;;;;9.45;8.23;;;;;;;16.33;99.35;99700.91;5552034;32;34267;-57
2022/09/26 09:49:30;;;;;;;9.07;6.75;;;;;;;16.47;96.55;99684.38;5565794;32;34482;-57
2022/09/26 09:53:08;;;;;;;8.82;6.68;;;;;;;16.60;97.64;99690.59;5566216;32;35074;-57
2022/09/26 09:56:31;;;;;;;7.53;5.90;;;;;;;16.62;94.10;99675.59;5546060;32;33462;-57
2022/09/26 10:00:08;;;;;;;8.38;6.37;;;;;;;16.66;91.38;99679.19;5572208;31;33471;-57
2022/09/26 10:03:28;;;;;;;7.37;5.68;;;;;;;16.79;92.89;99677.31;5566273;32;34092;-57
2022/09/26 10:06:31;;;;;;;6.87;5.82;;;;;;;16.83;90.37;99680.13;5568005;31;33423;-57
2022/09/26 10:09:50;;;;;;;7.28;5.93;;;;;;;16.89;91.54;99678.78;5565260;32;34374;-57
2022/09/26 10:13:02;;;;;;;7.30;5.93;;;;;;;16.94;88.73;99680.47;5561577;32;32234;-57
2022/09/26 10:16:08;;;;;;;7.65;6.28;;;;;;;16.83;85.07;99672.81;5566968;32;33280;-57
2022/09/26 10:19:12;;;;;;;9.35;6.97;;;;;;;16.86;83.65;99669.41;5560176;32;33354;-57
2022/09/26 10:22:18;;;;;;;8.20;6.80;;;;;;;16.75;84.89;99676.41;5562393;32;33768;-57
2022/09/26 10:25:25;;;;;;;8.10;6.65;;;;;;;16.77;84.44;99679.56;5565720;32;33406;-57
2022/09/26 10:28:29;;;;;;;;;;;;;;;16.81;83.89;99688.59;5565468;32;34373;-57
2022/09/26 10:31:37;;;;;;;9.45;6.57;;;;;;;16.78;82.54;99693.88;5564437;31;34620;-57
2022/09/26 10:35:02;;;;;;;9.18;6.40;;;;;;;16.75;83.25;99686.44;5565484;31;34523;-57
2022/09/26 10:38:17;;;;;;;9.15;6.65;;;;;;;16.65;86.01;99691.16;5562494;32;34169;-57
2022/09/26 10:41:24;;;;;;;9.18;5.95;;;;;;;16.66;86.74;99686.53;5562800;31;33651;-57
2022/09/26 10:44:32;;;;;;;7.12;5.75;;;;;;;16.56;87.91;99695.09;5568904;31;34847;-57
2022/09/26 10:47:39;;;;;;;9.05;5.80;;;;;;;16.64;87.94;99689.56;5565146;32;32341;-57
2022/09/26 10:50:51;;;;;;;7.65;5.40;;;;;;;16.59;86.38;99686.31;5567197;32;32276;-57
2022/09/26 10:54:11;;;;;;;6.43;5.30;;;;;;;16.63;86.93;99684.50;5568691;31;33527;-56
2022/09/26 10:57:22;;;;;;;7.12;5.50;;;;;;;16.66;83.91;99687.31;5567469;31;33255;-57
2022/09/26 11:00:36;;;;;;;7.12;5.40;;;;;;;16.75;89.87;99698.03;5565751;32;34475;-57
2022/09/26 11:03:42;;;;;;;6.80;5.55;;;;;;;16.77;87.88;99695.03;5565699;32;33345;-57
2022/09/26 11:06:48;;;;;;;7.93;5.32;;;;;;;16.76;87.28;99696.16;5566611;31;33258;-57
2022/09/26 11:09:55;;;;;;;8.75;5.45;;;;;;;16.79;88.81;99690.84;5565561;31;32294;-57
2022/09/26 11:13:21;;;;;;;6.90;5.87;;;;;;;16.80;88.18;99694.34;5567158;31;33697;-57
2022/09/26 11:16:25;;;;;;;8.25;5.70;;;;;;;16.84;89.80;99701.44;5564213;31;33346;-57
2022/09/26 11:19:49;;;;;;;6.87;5.65;;;;;;;16.89;91.00;99701.22;5559936;32;33168;-57
2022/09/26 11:23:18;;;;;;;6.37;4.65;;;;;;;16.96;91.55;99703.37;5556630;32;33167;-57
2022/09/26 11:26:53;;;;;;;5.45;4.78;;;;;;;16.99;85.26;99699.19;5563774;32;34303;-57
2022/09/26 11:30:10;;;;;;;6.22;4.87;;;;;;;17.07;84.57;99690.94;5564853;32;33604;-57
2022/09/26 11:33:17;;;;;;;7.75;4.97;;;;;;;17.09;84.17;99687.91;5568044;31;34156;-57
2022/09/26 11:36:59;;;;;;;7.50;5.10;;;;;;;17.12;82.67;99688.00;5568291;31;34386;-57
2022/09/26 11:40:11;;;;;;;5.70;4.45;;;;;;;17.17;84.99;99681.56;5568609;31;32215;-57
2022/09/26 11:43:26;;;;;;;6.28;4.72;;;;;;;17.19;81.62;99683.94;5568121;31;33456;-57
2022/09/26 11:46:57;;;;;;;5.97;5.18;;;;;;;17.25;81.72;99679.84;5561447;31;33429;-57
2022/09/26 11:50:19;;;;;;;5.82;4.25;;;;;;;17.33;82.53;99679.72;5547881;32;33240;-57
2022/09/26 11:53:44;;;;;;;6.80;4.80;;;;;;;17.38;81.63;99678.69;5548703;32;34327;-57
2022/09/26 11:57:30;;;;;;;4.65;4.05;;;;;;;17.48;82.48;99683.66;5548723;32;33940;-57
2022/09/26 12:00:57;;;;;;;4.95;4.05;;;;;;;17.48;79.97;99680.94;5550277;32;33715;-57
2022/09/26 12:04:31;;;;;;;7.20;3.92;;;;;;;17.55;81.29;99691.22;5548953;32;34359;-57
2022/09/26 12:07:43;;;;;;;7.85;3.97;;;;;;;17.53;78.90;99685.31;5548342;32;33773;-57
2022/09/26 12:11:04;;;;;;;5.28;4.05;;;;;;;17.58;77.56;99679.66;5548520;32;33840;-57
2022/09/26 12:14:34;;;;;;;5.55;3.87;;;;;;;17.59;77.92;99673.91;5558319;32;34444;-57
2022/09/26 12:18:04;;;;;;;5.70;3.90;;;;;;;17.70;76.93;99662.56;5566393;32;34461;-57
2022/09/26 12:21:33;;;;;;;5.32;4.07;;;;;;;17.71;76.38;99651.37;5566831;32;33783;-57
2022/09/26 12:24:50;;;;;;;7.25;4.00;;;;;;;17.79;75.52;99646.97;5551554;32;34337;-57
2022/09/26 12:28:18;;;;;;;7.75;4.47;;;;;;;17.93;73.28;99633.00;5563329;32;34290;-57
2022/09/26 12:31:53;;;;;;;6.85;4.60;;;;;;;17.98;73.20;99627.31;5563351;32;33815;-57
2022/09/26 12:35:20;;;;;;;5.57;4.62;;;;;;;18.03;73.63;99622.44;5557315;32;33622;-57
2022/09/26 12:38:43;;;;;;;5.75;3.67;;;;;;;18.12;71.57;99626.91;5554967;32;33764;-57
2022/09/26 12:42:01;;;;;;;5.18;4.12;;;;;;;18.12;71.65;99618.78;5563377;32;33695;-57
2022/09/26 12:45:30;;;;;;;6.87;4.20;;;;;;;18.07;71.47;99625.22;5563007;32;33736;-57
2022/09/26 12:49:10;;;;;;;5.85;4.28;;;;;;;18.19;72.24;99619.75;5550925;32;33650;-57
2022/09/26 12:52:38;;;;;;;6.87;4.18;;;;;;;18.05;72.17;99624.81;5551059;32;33827;-57
2022/09/26 12:55:50;;;;;;;5.78;3.85;;;;;;;18.07;72.39;99604.31;5550999;32;33725;-57
2022/09/26 12:59:25;;;;;;;4.68;3.58;;;;;;;18.08;70.06;99605.91;5550993;32;33695;-57
2022/09/26 13:02:45;;;;;;;4.37;3.30;;;;;;;18.13;68.79;99599.44;5551044;32;33826;-57
2022/09/26 13:06:13;;;;;;;3.25;2.60;;;;;;;18.08;70.55;99605.13;5550963;32;33713;-57
2022/09/26 13:09:30;;;;;;;3.62;2.90;;;;;;;18.04;65.96;99606.94;5551082;32;33780;-57
2022/09/26 13:12:46;;;;;;;3.95;2.87;;;;;;;18.08;69.56;99607.84;5550930;32;34476;-57
2022/09/26 13:15:58;;;;;;;5.18;3.30;;;;;;;18.14;67.99;99611.06;5550660;32;34408;-57
2022/09/26 13:19:15;;;;;;;4.85;4.00;;;;;;;18.16;71.74;99614.22;5550800;32;33747;-57
2022/09/26 13:22:20;;;;;;;5.28;3.47;;;;;;;18.11;70.81;99609.81;5550812;32;33361;-57
2022/09/26 13:25:43;;;;;;;4.00;3.03;;;;;;;18.06;72.00;99612.81;5551038;32;34028;-57
2022/09/26 13:29:06;;;;;;;7.18;3.45;;;;;;;18.06;71.14;99610.09;5550541;32;34325;-57
2022/09/26 13:32:33;;;;;;;6.25;3.70;;;;;;;18.16;73.00;99608.81;5549334;32;33424;-57
2022/09/26 13:35:39;;;;;;;8.00;4.40;;;;;;;18.22;70.10;99601.97;5550566;32;33733;-57
2022/09/26 13:38:58;;;;;;;6.18;4.22;;;;;;;18.22;73.86;99619.03;5550099;32;33709;-57
2022/09/26 13:42:10;;;;;;;7.22;3.97;;;;;;;18.33;74.63;99605.72;5550096;32;33773;-57
2022/09/26 13:45:32;;;;;;;6.60;3.75;;;;;;;18.27;74.98;99607.91;5550455;32;33618;-57
2022/09/26 13:48:45;;;;;;;4.87;3.62;;;;;;;18.36;75.89;99610.47;5550436;32;33746;-57
2022/09/26 13:52:00;;;;;;;4.43;3.70;;;;;;;18.38;72.67;99618.25;5550220;32;33669;-57
2022/09/26 13:55:09;;;;;;;7.18;3.78;;;;;;;18.38;72.46;99615.56;5550377;32;34534;-57
2022/09/26 13:58:20;;;;;;;5.80;4.03;;;;;;;18.39;74.42;99614.41;5550253;32;33724;-57
2022/09/26 14:01:26;;;;;;;6.93;3.67;;;;;;;18.43;72.29;99607.13;5549933;32;33497;-57
2022/09/26 14:04:35;;;;;;;8.00;4.30;;;;;;;18.46;72.11;99592.84;5550148;32;33691;-57
2022/09/26 14:11:10;;;;;;;6.78;4.37;;;;;;;18.43;73.06;99588.91;5550305;32;34300;-57
2022/09/26 14:14:15;;;;;;;5.60;3.95;;;;;;;18.38;70.87;99601.97;5549825;32;34071;-57
2022/09/26 14:17:43;;;;;;;9.35;4.05;;;;;;;18.40;73.59;99603.19;5550156;32;33803;-57
2022/09/26 14:20:56;;;;;;;5.30;4.68;;;;;;;18.39;74.67;99593.47;5550122;32;33775;-57
2022/09/26 14:24:20;;;;;;;8.75;4.65;;;;;;;18.43;74.10;99582.69;5550272;32;34437;-57
2022/09/26 14:27:35;;;;;;;6.07;4.40;;;;;;;18.46;75.05;99576.56;5550083;32;34012;-59
2022/09/26 14:30:37;;;;;;;9.35;4.30;;;;;;;18.38;75.59;99577.56;5550086;32;34312;-58
2022/09/26 14:33:41;;;;;;;6.30;3.90;;;;;;;18.38;75.24;99553.91;5550044;32;33693;-58
2022/09/26 14:36:45;;;;;;;4.70;3.62;;;;;;;18.29;71.05;99556.81;5549922;32;33775;-59
2022/09/26 14:39:58;;;;;;;7.72;3.83;;;;;;;18.25;72.47;99558.66;5550049;32;33644;-59
2022/09/26 14:43:16;;;;;;;4.72;3.30;;;;;;;18.25;72.58;99555.94;5549982;32;34477;-59
2022/09/26 14:46:24;;;;;;;4.30;3.40;;;;;;;18.32;70.84;99549.91;5550192;32;33648;-59
2022/09/26 14:49:27;;;;;;;3.85;3.12;;;;;;;18.31;73.02;99551.06;5559497;32;33662;-58
2022/09/26 14:52:31;;;;;;;6.93;3.87;;;;;;;18.22;71.02;99556.66;5566045;32;35198;-59
2022/09/26 14:55:33;;;;;;;6.65;3.95;;;;;;;18.22;72.65;99551.22;5559344;32;33784;-57
2022/09/26 14:58:36;;;;;;;5.15;3.95;;;;;;;18.23;70.36;99552.78;5549815;32;33790;-57
2022/09/26 15:01:38;;;;;;;6.37;3.90;;;;;;;18.25;70.63;99560.59;5549925;32;34298;-57
2022/09/26 15:04:42;;;;;;;4.87;3.05;;;;;;;18.27;71.89;99553.66;5549876;32;33611;-58
2022/09/26 15:07:52;;;;;;;5.05;3.45;;;;;;;18.29;70.62;99562.25;5549952;32;33808;-58
2022/09/26 15:10:56;;;;;;;3.80;3.10;;;;;;;18.29;71.14;99556.81;5549961;32;33740;-58
2022/09/26 15:14:09;;;;;;;5.60;3.50;;;;;;;18.26;68.85;99537.75;5560824;32;34381;-58
2022/09/26 15:17:17;;;;;;;5.32;3.58;;;;;;;18.35;70.69;99532.91;5558365;32;33311;-58
2022/09/26 15:20:21;;;;;;;8.40;3.50;;;;;;;18.35;70.93;99532.12;5557417;32;34336;-57
2022/09/26 15:23:31;;;;;;;5.32;3.45;;;;;;;18.34;73.14;99536.75;5568292;32;35204;-58
2022/09/26 15:26:35;;;;;;;5.12;3.72;;;;;;;18.36;73.10;99534.47;5568927;32;34359;-58
2022/09/26 15:29:47;;;;;;;6.65;3.85;;;;;;;18.32;72.22;99525.47;5567489;32;34278;-58
2022/09/26 15:32:55;;;;;;;5.95;3.72;;;;;;;18.23;71.25;99525.66;5566991;32;33564;-57
2022/09/26 15:36:00;;;;;;;8.25;3.80;;;;;;;18.20;72.10;99534.50;5566048;32;33711;-58
2022/09/26 15:39:31;;;;;;;10.25;3.55;;;;;;;18.18;73.10;99533.25;5569181;32;34314;-58
2022/09/26 15:45:57;;;;;;;5.85;3.72;;;;;;;18.11;76.90;99531.16;5569019;32;33711;-57
2022/09/26 15:48:59;;;;;;;7.57;4.03;;;;;;;18.17;74.19;99537.13;5569078;32;33626;-58
2022/09/26 15:52:03;;;;;;;5.93;3.87;;;;;;;18.06;76.84;99536.87;5568862;32;33772;-58
2022/09/26 15:55:08;;;;;;;5.03;3.85;;;;;;;18.04;74.06;99542.63;5568909;32;33619;-58
